Time,TemperatureF,DewpointF,PressureIn,WindDirection,WindDirectionDegrees,WindSpeedMPH,WindSpeedGustMPH,Humidity,HourlyPrecipIn,Conditions,Clouds,dailyrainin,SoftwareType,DateUTC
2013-04-22 00:14:00,58.7,48.0,30.08,ESE,111,3.0,9.0,68,0.00,,,0.00,weatherlink.com 1.10,2013-04-22 05:14:00,
2013-04-22 00:29:00,58.0,48.0,30.07,ESE,111,4.0,8.0,69,0.00,,,0.00,weatherlink.com 1.10,2013-04-22 05:29:00,
2013-04-22 00:44:00,57.6,47.0,30.07,ESE,115,5.0,8.0,69,0.00,,,0.00,weatherlink.com 1.10,2013-04-22 05:44:00,
2013-04-22 00:59:00,57.5,47.0,30.07,ESE,119,3.0,8.0,69,0.00,,,0.00,weatherlink.com 1.10,2013-04-22 05:59:00,
2013-04-22 01:14:00,56.8,47.0,30.07,ESE,121,0.0,5.0,70,0.00,,,0.00,weatherlink.com 1.10,2013-04-22 06:14:00,
2013-04-22 01:29:00,56.4,47.0,30.07,ESE,117,0.0,6.0,72,0.00,,,0.00,weatherlink.com 1.10,2013-04-22 06:29:00,
2013-04-22 01:44:00,56.2,47.0,30.06,ESE,118,7.0,7.0,72,0.00,,,0.00,weatherlink.com 1.10,2013-04-22 06:44:00,
2013-04-22 01:59:00,56.2,47.0,30.06,ESE,122,0.0,8.0,72,0.00,,,0.00,weatherlink.com 1.10,2013-04-22 06:59:00,
2013-04-22 02:14:00,56.0,47.0,30.05,ESE,115,4.0,8.0,72,0.00,,,0.00,weatherlink.com 1.10,2013-04-22 07:14:00,
2013-04-22 02:30:00,55.8,47.0,30.05,ESE,116,4.0,7.0,73,0.00,,,0.00,weatherlink.com 1.10,2013-04-22 07:30:00,
2013-04-22 02:45:00,55.3,47.0,30.05,SE,135,0.0,5.0,74,0.00,,,0.00,weatherlink.com 1.10,2013-04-22 07:45:00,
2013-04-22 03:00:00,54.9,47.0,30.05,ESE,123,0.0,5.0,75,0.00,,,0.00,weatherlink.com 1.10,2013-04-22 08:00:00,
2013-04-22 03:15:00,54.2,47.0,30.05,SE,128,0.0,0.0,77,0.00,,,0.00,weatherlink.com 1.10,2013-04-22 08:15:00,
2013-04-22 03:30:00,53.9,47.0,30.04,ESE,117,3.0,5.0,78,0.00,,,0.00,weatherlink.com 1.10,2013-04-22 08:30:00,
2013-04-22 03:45:00,53.9,47.0,30.03,ESE,117,5.0,8.0,78,0.00,,,0.00,weatherlink.com 1.10,2013-04-22 08:45:00,
2013-04-22 04:00:00,54.1,47.0,30.03,ESE,115,5.0,8.0,78,0.00,,,0.00,weatherlink.com 1.10,2013-04-22 09:00:00,
2013-04-22 04:15:00,53.7,47.0,30.03,SE,128,0.0,5.0,77,0.00,,,0.00,weatherlink.com 1.10,2013-04-22 09:15:00,
2013-04-22 04:30:00,53.7,46.0,30.02,SSE,149,5.0,8.0,76,0.00,,,0.00,weatherlink.com 1.10,2013-04-22 09:30:00,
2013-04-22 04:45:00,53.5,46.0,30.02,SE,142,3.0,7.0,76,0.00,,,0.00,weatherlink.com 1.10,2013-04-22 09:45:00,
2013-04-22 05:00:00,53.7,46.0,30.02,SE,139,3.0,9.0,75,0.00,,,0.00,weatherlink.com 1.10,2013-04-22 10:00:00,
2013-04-22 05:15:00,53.8,46.0,30.02,SE,134,0.0,8.0,74,0.00,,,0.00,weatherlink.com 1.10,2013-04-22 10:15:00,
2013-04-22 05:30:00,53.6,46.0,30.02,SE,144,3.0,8.0,74,0.00,,,0.00,weatherlink.com 1.10,2013-04-22 10:30:00,
2013-04-22 05:45:00,53.7,45.0,30.02,SE,138,8.0,8.0,73,0.00,,,0.00,weatherlink.com 1.10,2013-04-22 10:45:00,
2013-04-22 06:00:00,53.0,45.0,30.02,SSE,153,2.0,7.0,75,0.00,,,0.00,weatherlink.com 1.10,2013-04-22 11:00:00,
2013-04-22 06:15:00,52.9,45.0,30.02,SE,136,0.0,6.0,75,0.00,,,0.00,weatherlink.com 1.10,2013-04-22 11:15:00,
2013-04-22 06:30:00,52.6,45.0,30.03,SE,142,0.0,5.0,75,0.00,,,0.00,weatherlink.com 1.10,2013-04-22 11:30:00,
2013-04-22 06:45:00,52.3,45.0,30.03,ESE,123,0.0,0.0,76,0.00,,,0.00,weatherlink.com 1.10,2013-04-22 11:45:00,
2013-04-22 07:00:00,52.2,45.0,30.04,ESE,121,0.0,0.0,76,0.00,,,0.00,weatherlink.com 1.10,2013-04-22 12:00:00,
2013-04-22 07:15:00,51.6,45.0,30.03,ESE,111,3.0,5.0,78,0.00,,,0.00,weatherlink.com 1.10,2013-04-22 12:15:00,
2013-04-22 07:30:00,53.0,46.0,30.04,SE,134,5.0,9.0,76,0.00,,,0.00,weatherlink.com 1.10,2013-04-22 12:30:00,
2013-04-22 07:45:00,53.9,46.0,30.04,ESE,119,7.0,9.0,75,0.00,,,0.00,weatherlink.com 1.10,2013-04-22 12:45:00,
2013-04-22 08:00:00,55.2,47.0,30.04,SE,137,8.0,11.0,73,0.00,,,0.00,weatherlink.com 1.10,2013-04-22 13:00:00,
2013-04-22 08:15:00,56.5,47.0,30.03,SSE,165,7.0,14.0,71,0.00,,,0.00,weatherlink.com 1.10,2013-04-22 13:15:00,
2013-04-22 08:30:00,57.3,48.0,30.03,SSE,152,7.0,13.0,72,0.00,,,0.00,weatherlink.com 1.10,2013-04-22 13:30:00,
2013-04-22 08:45:00,58.4,49.0,30.03,SE,144,2.0,10.0,72,0.00,,,0.00,weatherlink.com 1.10,2013-04-22 13:45:00,
2013-04-22 09:00:00,59.5,51.0,30.03,South,179,4.0,13.0,73,0.00,,,0.00,weatherlink.com 1.10,2013-04-22 14:00:00,
2013-04-22 09:15:00,61.4,52.0,30.02,SSW,192,2.0,14.0,72,0.00,,,0.00,weatherlink.com 1.10,2013-04-22 14:15:00,
2013-04-22 09:30:00,62.2,53.0,30.02,SSE,150,3.0,16.0,71,0.00,,,0.00,weatherlink.com 1.10,2013-04-22 14:30:00,
2013-04-22 09:45:00,63.3,53.0,30.02,SE,141,4.0,17.0,70,0.00,,,0.00,weatherlink.com 1.10,2013-04-22 14:45:00,
2013-04-22 10:00:00,64.4,54.0,30.01,SSW,207,8.0,18.0,68,0.00,,,0.00,weatherlink.com 1.10,2013-04-22 15:00:00,
2013-04-22 10:15:00,65.8,54.0,30.00,SSW,192,6.0,21.0,65,0.00,,,0.00,weatherlink.com 1.10,2013-04-22 15:15:00,
2013-04-22 10:31:00,66.5,53.0,30.00,SE,138,5.0,20.0,63,0.00,,,0.00,weatherlink.com 1.10,2013-04-22 15:31:00,
2013-04-22 10:46:00,67.2,53.0,30.00,SSE,168,16.0,23.0,61,0.00,,,0.00,weatherlink.com 1.10,2013-04-22 15:46:00,
2013-04-22 11:01:00,67.8,53.0,30.00,South,175,7.0,26.0,60,0.00,,,0.00,weatherlink.com 1.10,2013-04-22 16:01:00,
2013-04-22 11:16:00,67.7,54.0,29.99,South,179,8.0,24.0,61,0.00,,,0.00,weatherlink.com 1.10,2013-04-22 16:16:00,
2013-04-22 11:31:00,68.8,55.0,29.98,SSE,165,9.0,22.0,61,0.00,,,0.00,weatherlink.com 1.10,2013-04-22 16:31:00,
2013-04-22 11:46:00,69.3,54.0,29.98,South,175,10.0,27.0,59,0.00,,,0.00,weatherlink.com 1.10,2013-04-22 16:46:00,
2013-04-22 12:01:00,69.3,54.0,29.97,SSW,192,7.0,23.0,59,0.00,,,0.00,weatherlink.com 1.10,2013-04-22 17:01:00,
2013-04-22 12:16:00,70.4,56.0,29.96,SSW,197,2.0,24.0,60,0.00,,,0.00,weatherlink.com 1.10,2013-04-22 17:16:00,
2013-04-22 12:31:00,71.1,55.0,29.95,SE,125,16.0,21.0,58,0.00,,,0.00,weatherlink.com 1.10,2013-04-22 17:31:00,
2013-04-22 12:46:00,71.8,55.0,29.94,SE,135,19.0,21.0,56,0.00,,,0.00,weatherlink.com 1.10,2013-04-22 17:46:00,
2013-04-22 13:01:00,72.0,55.0,29.93,SSE,156,12.0,21.0,56,0.00,,,0.00,weatherlink.com 1.10,2013-04-22 18:01:00,
2013-04-22 13:16:00,72.5,56.0,29.91,SE,134,0.0,21.0,56,0.00,,,0.00,weatherlink.com 1.10,2013-04-22 18:16:00,
2013-04-22 13:31:00,73.0,56.0,29.90,SSE,148,12.0,22.0,55,0.00,,,0.00,weatherlink.com 1.10,2013-04-22 18:31:00,
2013-04-22 13:46:00,73.0,56.0,29.90,South,175,11.0,22.0,56,0.00,,,0.00,weatherlink.com 1.10,2013-04-22 18:46:00,
2013-04-22 14:01:00,72.9,56.0,29.89,South,188,6.0,27.0,56,0.00,,,0.00,weatherlink.com 1.10,2013-04-22 19:01:00,
2013-04-22 14:16:00,73.4,56.0,29.88,SSE,167,6.0,33.0,55,0.00,,,0.00,weatherlink.com 1.10,2013-04-22 19:16:00,
2013-04-22 14:31:00,74.0,58.0,29.88,SE,126,15.0,22.0,57,0.00,,,0.00,weatherlink.com 1.10,2013-04-22 19:31:00,
2013-04-22 14:46:00,74.4,58.0,29.87,SE,139,12.0,20.0,56,0.00,,,0.00,weatherlink.com 1.10,2013-04-22 19:46:00,
2013-04-22 15:01:00,74.2,57.0,29.86,SSE,161,12.0,21.0,55,0.00,,,0.00,weatherlink.com 1.10,2013-04-22 20:01:00,
2013-04-22 15:16:00,74.5,57.0,29.86,South,181,7.0,22.0,55,0.00,,,0.00,weatherlink.com 1.10,2013-04-22 20:16:00,
2013-04-22 15:31:00,74.7,57.0,29.85,SE,144,6.0,20.0,55,0.00,,,0.00,weatherlink.com 1.10,2013-04-22 20:31:00,
2013-04-22 15:46:00,74.6,58.0,29.83,SE,144,18.0,26.0,56,0.00,,,0.00,weatherlink.com 1.10,2013-04-22 20:46:00,
2013-04-22 16:01:00,74.7,58.0,29.82,SSE,152,6.0,24.0,57,0.00,,,0.00,weatherlink.com 1.10,2013-04-22 21:01:00,
2013-04-22 16:16:00,75.5,58.0,29.82,SSW,200,6.0,18.0,55,0.00,,,0.00,weatherlink.com 1.10,2013-04-22 21:16:00,
2013-04-22 16:31:00,75.1,58.0,29.82,SSE,163,4.0,22.0,56,0.00,,,0.00,weatherlink.com 1.10,2013-04-22 21:31:00,
2013-04-22 16:46:00,75.3,59.0,29.81,SSE,165,5.0,24.0,57,0.00,,,0.00,weatherlink.com 1.10,2013-04-22 21:46:00,
2013-04-22 17:02:00,75.5,58.0,29.81,South,190,15.0,19.0,54,0.00,,,0.00,weatherlink.com 1.10,2013-04-22 22:02:00,
2013-04-22 17:17:00,76.0,58.0,29.80,SE,132,15.0,21.0,54,0.00,,,0.00,weatherlink.com 1.10,2013-04-22 22:17:00,
2013-04-22 17:32:00,75.7,58.0,29.80,SE,144,7.0,20.0,54,0.00,,,0.00,weatherlink.com 1.10,2013-04-22 22:32:00,
2013-04-22 17:47:00,75.9,58.0,29.79,South,184,0.0,20.0,54,0.00,,,0.00,weatherlink.com 1.10,2013-04-22 22:47:00,
2013-04-22 18:02:00,75.9,58.0,29.79,South,175,5.0,15.0,54,0.00,,,0.00,weatherlink.com 1.10,2013-04-22 23:02:00,
2013-04-22 18:17:00,75.3,58.0,29.79,SE,127,4.0,22.0,55,0.00,,,0.00,weatherlink.com 1.10,2013-04-22 23:17:00,
2013-04-22 18:32:00,75.5,58.0,29.79,SSE,161,11.0,20.0,55,0.00,,,0.00,weatherlink.com 1.10,2013-04-22 23:32:00,
2013-04-22 18:47:00,75.2,58.0,29.79,South,191,3.0,21.0,56,0.00,,,0.00,weatherlink.com 1.10,2013-04-22 23:47:00,
2013-04-22 19:02:00,75.2,58.0,29.79,SSE,149,4.0,15.0,56,0.00,,,0.00,weatherlink.com 1.10,2013-04-23 00:02:00,
2013-04-22 19:17:00,74.5,58.0,29.79,SE,136,7.0,15.0,57,0.00,,,0.00,weatherlink.com 1.10,2013-04-23 00:17:00,
2013-04-22 19:32:00,73.9,58.0,29.79,SE,146,6.0,19.0,58,0.00,,,0.00,weatherlink.com 1.10,2013-04-23 00:32:00,
2013-04-22 19:47:00,73.3,58.0,29.79,ESE,123,8.0,14.0,59,0.00,,,0.00,weatherlink.com 1.10,2013-04-23 00:47:00,
2013-04-22 20:02:00,72.5,58.0,29.79,SSE,149,9.0,15.0,61,0.00,,,0.00,weatherlink.com 1.10,2013-04-23 01:02:00,
2013-04-22 20:17:00,71.7,58.0,29.78,SE,139,8.0,13.0,62,0.00,,,0.00,weatherlink.com 1.10,2013-04-23 01:17:00,
2013-04-22 20:32:00,70.6,58.0,29.78,SE,136,0.0,9.0,65,0.00,,,0.00,weatherlink.com 1.10,2013-04-23 01:32:00,
2013-04-22 20:47:00,69.6,59.0,29.78,ESE,120,7.0,11.0,68,0.00,,,0.00,weatherlink.com 1.10,2013-04-23 01:47:00,
2013-04-22 21:02:00,69.3,59.0,29.78,SE,128,7.0,17.0,70,0.00,,,0.00,weatherlink.com 1.10,2013-04-23 02:02:00,
2013-04-22 21:17:00,69.2,59.0,29.78,SE,130,11.0,20.0,70,0.00,,,0.00,weatherlink.com 1.10,2013-04-23 02:17:00,
2013-04-22 21:32:00,69.0,59.0,29.78,SE,140,12.0,16.0,71,0.00,,,0.00,weatherlink.com 1.10,2013-04-23 02:32:00,
2013-04-22 21:47:00,68.6,59.0,29.78,SE,129,10.0,16.0,72,0.00,,,0.00,weatherlink.com 1.10,2013-04-23 02:47:00,
2013-04-22 22:02:00,68.2,59.0,29.78,SE,132,8.0,16.0,73,0.00,,,0.00,weatherlink.com 1.10,2013-04-23 03:02:00,
2013-04-22 22:17:00,67.7,59.0,29.79,SSE,156,6.0,17.0,74,0.00,,,0.00,weatherlink.com 1.10,2013-04-23 03:17:00,
2013-04-22 22:32:00,67.5,59.0,29.78,ESE,121,12.0,18.0,75,0.00,,,0.00,weatherlink.com 1.10,2013-04-23 03:32:00,
2013-04-22 22:47:00,67.2,59.0,29.77,ESE,123,11.0,20.0,75,0.00,,,0.00,weatherlink.com 1.10,2013-04-23 03:47:00,
2013-04-22 23:02:00,67.0,59.0,29.77,ESE,121,7.0,21.0,75,0.00,,,0.00,weatherlink.com 1.10,2013-04-23 04:02:00,
2013-04-22 23:17:00,66.8,59.0,29.76,SE,133,12.0,19.0,76,0.00,,,0.00,weatherlink.com 1.10,2013-04-23 04:17:00,
2013-04-22 23:32:00,66.8,59.0,29.75,SE,139,12.0,20.0,75,0.00,,,0.00,weatherlink.com 1.10,2013-04-23 04:32:00,
2013-04-22 23:47:00,66.6,59.0,29.75,SSE,148,10.0,21.0,76,0.00,,,0.00,weatherlink.com 1.10,2013-04-23 04:47:00,